sensor_id;sensor_type;location;lat;lon;timestamp;temperature;humidity
28532;DHT22;15738;44.860;10.066;2022-12-20T00:00:00;7.10;99.90
28532;DHT22;15738;44.860;10.066;2022-12-20T00:02:45;7.10;99.90
28532;DHT22;15738;44.860;10.066;2022-12-20T00:05:38;7.10;99.90
28532;DHT22;15738;44.860;10.066;2022-12-20T00:08:24;7.10;99.90
28532;DHT22;15738;44.860;10.066;2022-12-20T00:11:11;7.10;99.90
28532;DHT22;15738;44.860;10.066;2022-12-20T00:13:57;7.10;99.90
28532;DHT22;15738;44.860;10.066;2022-12-20T00:16:43;7.10;99.90
28532;DHT22;15738;44.860;10.066;2022-12-20T00:19:29;7.10;99.90
28532;DHT22;15738;44.860;10.066;2022-12-20T00:22:14;7.10;99.90
28532;DHT22;15738;44.860;10.066;2022-12-20T00:25:00;7.10;99.90
28532;DHT22;15738;44.860;10.066;2022-12-20T00:27:46;7.10;99.90
28532;DHT22;15738;44.860;10.066;2022-12-20T00:30:32;7.10;99.90
28532;DHT22;15738;44.860;10.066;2022-12-20T00:33:20;7.10;99.90
28532;DHT22;15738;44.860;10.066;2022-12-20T00:36:06;7.20;99.90
28532;DHT22;15738;44.860;10.066;2022-12-20T00:38:53;7.10;99.90
28532;DHT22;15738;44.860;10.066;2022-12-20T00:41:39;7.10;99.90
28532;DHT22;15738;44.860;10.066;2022-12-20T00:44:25;7.10;99.90
28532;DHT22;15738;44.860;10.066;2022-12-20T00:47:13;7.10;99.90
28532;DHT22;15738;44.860;10.066;2022-12-20T00:49:58;7.00;99.90
28532;DHT22;15738;44.860;10.066;2022-12-20T00:52:44;7.10;99.90
28532;DHT22;15738;44.860;10.066;2022-12-20T00:55:30;7.10;99.90
28532;DHT22;15738;44.860;10.066;2022-12-20T00:58:15;7.10;99.90
28532;DHT22;15738;44.860;10.066;2022-12-20T01:01:02;7.10;99.90
28532;DHT22;15738;44.860;10.066;2022-12-20T01:03:48;7.10;99.90
28532;DHT22;15738;44.860;10.066;2022-12-20T01:06:36;7.00;99.90
28532;DHT22;15738;44.860;10.066;2022-12-20T01:09:22;7.10;99.90
28532;DHT22;15738;44.860;10.066;2022-12-20T01:12:07;7.00;99.90
28532;DHT22;15738;44.860;10.066;2022-12-20T01:14:54;7.10;99.90
28532;DHT22;15738;44.860;10.066;2022-12-20T01:17:40;7.10;99.90
28532;DHT22;15738;44.860;10.066;2022-12-20T01:20:26;7.10;99.90
28532;DHT22;15738;44.860;10.066;2022-12-20T01:23:12;7.10;99.90
28532;DHT22;15738;44.860;10.066;2022-12-20T01:25:59;7.10;99.90
28532;DHT22;15738;44.860;10.066;2022-12-20T01:28:46;7.10;99.90
28532;DHT22;15738;44.860;10.066;2022-12-20T01:31:32;7.10;99.90
28532;DHT22;15738;44.860;10.066;2022-12-20T01:34:18;7.10;99.90
28532;DHT22;15738;44.860;10.066;2022-12-20T01:37:04;7.10;99.90
28532;DHT22;15738;44.860;10.066;2022-12-20T01:39:50;7.10;99.90
28532;DHT22;15738;44.860;10.066;2022-12-20T01:42:36;7.10;99.90
28532;DHT22;15738;44.860;10.066;2022-12-20T01:45:28;7.10;99.90
28532;DHT22;15738;44.860;10.066;2022-12-20T01:48:17;7.10;99.90
28532;DHT22;15738;44.860;10.066;2022-12-20T01:51:06;7.10;99.90
28532;DHT22;15738;44.860;10.066;2022-12-20T01:53:57;7.10;99.90
28532;DHT22;15738;44.860;10.066;2022-12-20T01:56:50;7.20;99.90
28532;DHT22;15738;44.860;10.066;2022-12-20T01:59:41;7.10;99.90
28532;DHT22;15738;44.860;10.066;2022-12-20T02:02:28;7.10;99.90
28532;DHT22;15738;44.860;10.066;2022-12-20T02:05:17;7.10;99.90
28532;DHT22;15738;44.860;10.066;2022-12-20T02:08:05;7.10;99.90
28532;DHT22;15738;44.860;10.066;2022-12-20T02:27:26;7.20;99.90
28532;DHT22;15738;44.860;10.066;2022-12-20T02:30:27;7.20;99.90
28532;DHT22;15738;44.860;10.066;2022-12-20T02:33:13;7.20;99.90
28532;DHT22;15738;44.860;10.066;2022-12-20T02:35:59;7.20;99.90
28532;DHT22;15738;44.860;10.066;2022-12-20T02:38:44;7.10;99.90
28532;DHT22;15738;44.860;10.066;2022-12-20T02:41:50;7.10;99.90
28532;DHT22;15738;44.860;10.066;2022-12-20T02:45:06;7.10;99.90
28532;DHT22;15738;44.860;10.066;2022-12-20T02:48:08;7.10;99.90
28532;DHT22;15738;44.860;10.066;2022-12-20T02:50:56;7.10;99.90
28532;DHT22;15738;44.860;10.066;2022-12-20T02:53:43;7.10;99.90
28532;DHT22;15738;44.860;10.066;2022-12-20T02:56:38;7.10;99.90
28532;DHT22;15738;44.860;10.066;2022-12-20T03:00:08;7.10;99.90
28532;DHT22;15738;44.860;10.066;2022-12-20T03:02:55;7.10;99.90
28532;DHT22;15738;44.860;10.066;2022-12-20T03:06:00;7.10;99.90
28532;DHT22;15738;44.860;10.066;2022-12-20T03:08:47;7.10;99.90
28532;DHT22;15738;44.860;10.066;2022-12-20T03:11:33;7.10;99.90
28532;DHT22;15738;44.860;10.066;2022-12-20T03:14:19;7.10;99.90
28532;DHT22;15738;44.860;10.066;2022-12-20T03:17:07;7.10;99.90
28532;DHT22;15738;44.860;10.066;2022-12-20T03:19:55;7.10;99.90
28532;DHT22;15738;44.860;10.066;2022-12-20T03:22:41;7.10;99.90
28532;DHT22;15738;44.860;10.066;2022-12-20T03:25:27;7.10;99.90
28532;DHT22;15738;44.860;10.066;2022-12-20T03:28:13;7.10;99.90
28532;DHT22;15738;44.860;10.066;2022-12-20T03:30:59;7.10;99.90
28532;DHT22;15738;44.860;10.066;2022-12-20T03:33:46;7.00;99.90
28532;DHT22;15738;44.860;10.066;2022-12-20T03:36:32;7.00;99.90
28532;DHT22;15738;44.860;10.066;2022-12-20T03:39:21;7.00;99.90
28532;DHT22;15738;44.860;10.066;2022-12-20T03:42:10;7.00;99.90
28532;DHT22;15738;44.860;10.066;2022-12-20T03:44:55;7.00;99.90
28532;DHT22;15738;44.860;10.066;2022-12-20T03:47:44;7.00;99.90
28532;DHT22;15738;44.860;10.066;2022-12-20T03:50:30;7.10;99.90
28532;DHT22;15738;44.860;10.066;2022-12-20T03:53:18;7.10;99.90
28532;DHT22;15738;44.860;10.066;2022-12-20T03:56:04;7.10;99.90
28532;DHT22;15738;44.860;10.066;2022-12-20T03:58:50;7.10;99.90
28532;DHT22;15738;44.860;10.066;2022-12-20T04:01:35;7.10;99.90
28532;DHT22;15738;44.860;10.066;2022-12-20T04:04:23;7.10;99.90
28532;DHT22;15738;44.860;10.066;2022-12-20T04:07:09;7.10;99.90
28532;DHT22;15738;44.860;10.066;2022-12-20T04:09:57;7.10;99.90
28532;DHT22;15738;44.860;10.066;2022-12-20T04:12:43;7.10;99.90
28532;DHT22;15738;44.860;10.066;2022-12-20T04:15:31;7.10;99.90
28532;DHT22;15738;44.860;10.066;2022-12-20T04:18:17;7.10;99.90
28532;DHT22;15738;44.860;10.066;2022-12-20T04:21:05;7.10;99.90
28532;DHT22;15738;44.860;10.066;2022-12-20T04:23:54;7.10;99.90
28532;DHT22;15738;44.860;10.066;2022-12-20T04:26:46;7.10;99.90
28532;DHT22;15738;44.860;10.066;2022-12-20T04:29:32;7.10;99.90
28532;DHT22;15738;44.860;10.066;2022-12-20T04:32:19;7.10;99.90
28532;DHT22;15738;44.860;10.066;2022-12-20T04:35:05;7.10;99.90
28532;DHT22;15738;44.860;10.066;2022-12-20T04:37:56;7.00;99.90
28532;DHT22;15738;44.860;10.066;2022-12-20T04:40:42;7.00;99.90
28532;DHT22;15738;44.860;10.066;2022-12-20T04:43:29;7.10;99.90
28532;DHT22;15738;44.860;10.066;2022-12-20T04:46:17;7.10;99.90
28532;DHT22;15738;44.860;10.066;2022-12-20T04:49:04;7.10;99.90
28532;DHT22;15738;44.860;10.066;2022-12-20T04:51:51;7.10;99.90
28532;DHT22;15738;44.860;10.066;2022-12-20T04:54:38;7.10;99.90
28532;DHT22;15738;44.860;10.066;2022-12-20T04:57:32;7.00;99.90
28532;DHT22;15738;44.860;10.066;2022-12-20T05:00:19;7.00;99.90
28532;DHT22;15738;44.860;10.066;2022-12-20T05:03:11;7.10;99.90
28532;DHT22;15738;44.860;10.066;2022-12-20T05:05:58;7.10;99.90
28532;DHT22;15738;44.860;10.066;2022-12-20T05:08:44;7.10;99.90
28532;DHT22;15738;44.860;10.066;2022-12-20T05:11:30;7.10;99.90
28532;DHT22;15738;44.860;10.066;2022-12-20T05:14:15;7.10;99.90
28532;DHT22;15738;44.860;10.066;2022-12-20T05:17:01;7.00;99.90
28532;DHT22;15738;44.860;10.066;2022-12-20T05:19:47;7.10;99.90
28532;DHT22;15738;44.860;10.066;2022-12-20T05:22:33;7.10;99.90
28532;DHT22;15738;44.860;10.066;2022-12-20T05:25:39;7.10;99.90
28532;DHT22;15738;44.860;10.066;2022-12-20T05:28:45;7.10;99.90
28532;DHT22;15738;44.860;10.066;2022-12-20T05:31:31;7.10;99.90
28532;DHT22;15738;44.860;10.066;2022-12-20T05:34:19;7.10;99.90
28532;DHT22;15738;44.860;10.066;2022-12-20T05:37:10;7.10;99.90
28532;DHT22;15738;44.860;10.066;2022-12-20T05:39:58;7.10;99.90
28532;DHT22;15738;44.860;10.066;2022-12-20T05:42:44;7.10;99.90
28532;DHT22;15738;44.860;10.066;2022-12-20T05:45:31;7.20;99.90
28532;DHT22;15738;44.860;10.066;2022-12-20T05:48:21;7.10;99.90
28532;DHT22;15738;44.860;10.066;2022-12-20T05:51:07;7.10;99.90
28532;DHT22;15738;44.860;10.066;2022-12-20T05:54:07;7.10;99.90
28532;DHT22;15738;44.860;10.066;2022-12-20T05:57:06;7.10;99.90
28532;DHT22;15738;44.860;10.066;2022-12-20T05:59:55;7.10;99.90
28532;DHT22;15738;44.860;10.066;2022-12-20T06:02:42;7.10;99.90
28532;DHT22;15738;44.860;10.066;2022-12-20T06:05:28;7.10;99.90
28532;DHT22;15738;44.860;10.066;2022-12-20T06:08:17;7.10;99.90
28532;DHT22;15738;44.860;10.066;2022-12-20T06:11:04;7.10;99.90
28532;DHT22;15738;44.860;10.066;2022-12-20T06:13:57;7.10;99.90
28532;DHT22;15738;44.860;10.066;2022-12-20T06:16:43;7.00;99.90
28532;DHT22;15738;44.860;10.066;2022-12-20T06:19:30;7.00;99.90
28532;DHT22;15738;44.860;10.066;2022-12-20T06:22:17;7.00;99.90
28532;DHT22;15738;44.860;10.066;2022-12-20T06:25:08;7.00;99.90
28532;DHT22;15738;44.860;10.066;2022-12-20T06:27:56;7.00;99.90
28532;DHT22;15738;44.860;10.066;2022-12-20T06:30:43;7.00;99.90
28532;DHT22;15738;44.860;10.066;2022-12-20T06:33:42;7.00;99.90
28532;DHT22;15738;44.860;10.066;2022-12-20T06:36:29;7.10;99.90
28532;DHT22;15738;44.860;10.066;2022-12-20T06:39:15;7.10;99.90
28532;DHT22;15738;44.860;10.066;2022-12-20T06:42:09;7.00;99.90
28532;DHT22;15738;44.860;10.066;2022-12-20T06:44:57;7.10;99.90
28532;DHT22;15738;44.860;10.066;2022-12-20T06:47:43;7.10;99.90
28532;DHT22;15738;44.860;10.066;2022-12-20T06:50:29;7.10;99.90
28532;DHT22;15738;44.860;10.066;2022-12-20T06:53:15;7.20;99.90
28532;DHT22;15738;44.860;10.066;2022-12-20T06:56:03;7.20;99.90
28532;DHT22;15738;44.860;10.066;2022-12-20T06:58:50;7.20;99.90
28532;DHT22;15738;44.860;10.066;2022-12-20T07:01:36;7.20;99.90
28532;DHT22;15738;44.860;10.066;2022-12-20T07:04:22;7.20;99.90
28532;DHT22;15738;44.860;10.066;2022-12-20T07:07:07;7.20;99.90
28532;DHT22;15738;44.860;10.066;2022-12-20T07:09:53;7.20;99.90
28532;DHT22;15738;44.860;10.066;2022-12-20T07:12:41;7.20;99.90
28532;DHT22;15738;44.860;10.066;2022-12-20T07:15:33;7.20;99.90
28532;DHT22;15738;44.860;10.066;2022-12-20T07:18:19;7.20;99.90
28532;DHT22;15738;44.860;10.066;2022-12-20T07:21:05;7.10;99.90
28532;DHT22;15738;44.860;10.066;2022-12-20T07:23:50;7.20;99.90
28532;DHT22;15738;44.860;10.066;2022-12-20T07:26:36;7.20;99.90
28532;DHT22;15738;44.860;10.066;2022-12-20T07:29:22;7.30;99.90
28532;DHT22;15738;44.860;10.066;2022-12-20T07:32:07;7.20;99.90
28532;DHT22;15738;44.860;10.066;2022-12-20T07:34:53;7.20;99.90
28532;DHT22;15738;44.860;10.066;2022-12-20T07:37:39;7.20;99.90
28532;DHT22;15738;44.860;10.066;2022-12-20T07:41:00;7.20;99.90
28532;DHT22;15738;44.860;10.066;2022-12-20T07:43:47;7.20;99.90
28532;DHT22;15738;44.860;10.066;2022-12-20T07:46:33;7.20;99.90
28532;DHT22;15738;44.860;10.066;2022-12-20T07:49:19;7.20;99.90
28532;DHT22;15738;44.860;10.066;2022-12-20T07:52:05;7.20;99.90
28532;DHT22;15738;44.860;10.066;2022-12-20T07:54:58;7.20;99.90
28532;DHT22;15738;44.860;10.066;2022-12-20T07:57:52;7.20;99.90
28532;DHT22;15738;44.860;10.066;2022-12-20T08:00:39;7.20;99.90
28532;DHT22;15738;44.860;10.066;2022-12-20T08:03:34;7.20;99.90
28532;DHT22;15738;44.860;10.066;2022-12-20T08:06:21;7.20;99.90
28532;DHT22;15738;44.860;10.066;2022-12-20T08:09:08;7.10;99.90
28532;DHT22;15738;44.860;10.066;2022-12-20T08:11:57;7.10;99.90
28532;DHT22;15738;44.860;10.066;2022-12-20T08:14:44;7.10;99.90
28532;DHT22;15738;44.860;10.066;2022-12-20T08:17:29;7.20;99.90
28532;DHT22;15738;44.860;10.066;2022-12-20T08:20:15;7.20;99.90
28532;DHT22;15738;44.860;10.066;2022-12-20T08:23:03;7.20;99.90
28532;DHT22;15738;44.860;10.066;2022-12-20T08:25:49;7.20;99.90
28532;DHT22;15738;44.860;10.066;2022-12-20T08:28:35;7.20;99.90
28532;DHT22;15738;44.860;10.066;2022-12-20T08:31:22;7.20;99.90
28532;DHT22;15738;44.860;10.066;2022-12-20T08:34:09;7.20;99.90
28532;DHT22;15738;44.860;10.066;2022-12-20T08:36:55;7.20;99.90
28532;DHT22;15738;44.860;10.066;2022-12-20T08:39:41;7.20;99.90
28532;DHT22;15738;44.860;10.066;2022-12-20T08:42:27;7.20;99.90
28532;DHT22;15738;44.860;10.066;2022-12-20T08:45:13;7.30;99.90
28532;DHT22;15738;44.860;10.066;2022-12-20T08:47:59;7.20;99.90
28532;DHT22;15738;44.860;10.066;2022-12-20T08:50:45;7.20;99.90
28532;DHT22;15738;44.860;10.066;2022-12-20T08:53:31;7.20;99.90
28532;DHT22;15738;44.860;10.066;2022-12-20T08:56:18;7.20;99.90
28532;DHT22;15738;44.860;10.066;2022-12-20T08:59:05;7.30;99.90
28532;DHT22;15738;44.860;10.066;2022-12-20T09:01:51;7.20;99.90
28532;DHT22;15738;44.860;10.066;2022-12-20T09:04:39;7.20;99.90
28532;DHT22;15738;44.860;10.066;2022-12-20T09:07:25;7.30;99.90
28532;DHT22;15738;44.860;10.066;2022-12-20T09:10:11;7.30;99.90
28532;DHT22;15738;44.860;10.066;2022-12-20T09:12:57;7.30;99.90
28532;DHT22;15738;44.860;10.066;2022-12-20T09:15:44;7.30;99.90
28532;DHT22;15738;44.860;10.066;2022-12-20T09:18:31;7.30;99.90
28532;DHT22;15738;44.860;10.066;2022-12-20T09:21:18;7.40;99.90
28532;DHT22;15738;44.860;10.066;2022-12-20T09:24:03;7.50;99.90
28532;DHT22;15738;44.860;10.066;2022-12-20T09:26:50;7.50;99.90
28532;DHT22;15738;44.860;10.066;2022-12-20T09:29:36;7.50;99.90
28532;DHT22;15738;44.860;10.066;2022-12-20T09:32:22;7.50;99.90
28532;DHT22;15738;44.860;10.066;2022-12-20T09:35:08;7.50;99.90
28532;DHT22;15738;44.860;10.066;2022-12-20T09:37:54;7.40;99.90
28532;DHT22;15738;44.860;10.066;2022-12-20T09:40:44;7.50;99.90
28532;DHT22;15738;44.860;10.066;2022-12-20T09:43:32;7.50;99.90
28532;DHT22;15738;44.860;10.066;2022-12-20T09:46:18;7.50;99.90
28532;DHT22;15738;44.860;10.066;2022-12-20T09:49:04;7.50;99.90
28532;DHT22;15738;44.860;10.066;2022-12-20T09:58:39;7.50;99.90
28532;DHT22;15738;44.860;10.066;2022-12-20T10:01:33;7.50;99.90
28532;DHT22;15738;44.860;10.066;2022-12-20T10:04:26;7.50;99.90
28532;DHT22;15738;44.860;10.066;2022-12-20T10:07:45;7.50;99.90
28532;DHT22;15738;44.860;10.066;2022-12-20T10:16:44;7.50;99.90
28532;DHT22;15738;44.860;10.066;2022-12-20T10:23:03;6.90;99.90
28532;DHT22;15738;44.860;10.066;2022-12-20T10:25:54;7.50;99.90
28532;DHT22;15738;44.860;10.066;2022-12-20T10:28:41;7.50;99.90
28532;DHT22;15738;44.860;10.066;2022-12-20T10:31:27;7.50;99.90
28532;DHT22;15738;44.860;10.066;2022-12-20T10:34:13;7.50;99.90
28532;DHT22;15738;44.860;10.066;2022-12-20T10:37:13;7.40;99.90
28532;DHT22;15738;44.860;10.066;2022-12-20T10:40:00;7.50;99.90
28532;DHT22;15738;44.860;10.066;2022-12-20T10:42:52;7.50;99.90
28532;DHT22;15738;44.860;10.066;2022-12-20T10:45:39;7.60;99.90
28532;DHT22;15738;44.860;10.066;2022-12-20T10:48:34;7.60;99.90
28532;DHT22;15738;44.860;10.066;2022-12-20T10:51:21;7.60;99.90
28532;DHT22;15738;44.860;10.066;2022-12-20T10:54:23;7.60;99.90
28532;DHT22;15738;44.860;10.066;2022-12-20T10:57:25;7.70;99.90
28532;DHT22;15738;44.860;10.066;2022-12-20T11:00:27;7.70;99.90
28532;DHT22;15738;44.860;10.066;2022-12-20T11:03:20;7.70;99.90
28532;DHT22;15738;44.860;10.066;2022-12-20T11:06:15;7.70;99.90
28532;DHT22;15738;44.860;10.066;2022-12-20T11:12:14;7.70;99.90
28532;DHT22;15738;44.860;10.066;2022-12-20T11:15:22;7.70;99.90
28532;DHT22;15738;44.860;10.066;2022-12-20T11:18:22;7.70;99.90
28532;DHT22;15738;44.860;10.066;2022-12-20T11:21:30;7.80;99.90
28532;DHT22;15738;44.860;10.066;2022-12-20T11:24:42;7.70;99.90
28532;DHT22;15738;44.860;10.066;2022-12-20T11:43:14;7.70;99.90
28532;DHT22;15738;44.860;10.066;2022-12-20T11:46:23;7.60;99.90
28532;DHT22;15738;44.860;10.066;2022-12-20T11:49:35;7.70;99.90
28532;DHT22;15738;44.860;10.066;2022-12-20T11:52:46;7.70;99.90
28532;DHT22;15738;44.860;10.066;2022-12-20T11:55:36;7.70;99.90
28532;DHT22;15738;44.860;10.066;2022-12-20T12:01:25;7.90;99.90
28532;DHT22;15738;44.860;10.066;2022-12-20T12:04:19;7.90;99.90
28532;DHT22;15738;44.860;10.066;2022-12-20T12:07:14;8.00;99.90
28532;DHT22;15738;44.860;10.066;2022-12-20T12:10:30;8.00;99.90
28532;DHT22;15738;44.860;10.066;2022-12-20T12:13:24;8.10;99.90
28532;DHT22;15738;44.860;10.066;2022-12-20T12:18:59;8.20;99.90
28532;DHT22;15738;44.860;10.066;2022-12-20T12:21:49;8.10;99.90
28532;DHT22;15738;44.860;10.066;2022-12-20T12:24:44;8.20;99.90
28532;DHT22;15738;44.860;10.066;2022-12-20T12:27:31;8.20;99.90
28532;DHT22;15738;44.860;10.066;2022-12-20T12:30:18;8.10;99.90
28532;DHT22;15738;44.860;10.066;2022-12-20T12:33:09;8.20;99.90
28532;DHT22;15738;44.860;10.066;2022-12-20T12:45:43;8.20;99.90
28532;DHT22;15738;44.860;10.066;2022-12-20T12:51:37;8.20;99.90
28532;DHT22;15738;44.860;10.066;2022-12-20T12:54:44;8.20;99.90
28532;DHT22;15738;44.860;10.066;2022-12-20T12:57:54;8.20;99.90
28532;DHT22;15738;44.860;10.066;2022-12-20T13:00:59;8.20;99.90
28532;DHT22;15738;44.860;10.066;2022-12-20T13:04:09;8.20;99.90
28532;DHT22;15738;44.860;10.066;2022-12-20T13:07:00;8.20;99.90
28532;DHT22;15738;44.860;10.066;2022-12-20T13:09:45;8.20;99.90
28532;DHT22;15738;44.860;10.066;2022-12-20T13:21:34;8.30;99.90
28532;DHT22;15738;44.860;10.066;2022-12-20T13:27:40;8.30;99.90
28532;DHT22;15738;44.860;10.066;2022-12-20T13:30:27;8.30;99.90
28532;DHT22;15738;44.860;10.066;2022-12-20T13:33:43;8.30;99.90
28532;DHT22;15738;44.860;10.066;2022-12-20T13:36:35;8.30;99.90
28532;DHT22;15738;44.860;10.066;2022-12-20T13:42:18;8.20;99.90
28532;DHT22;15738;44.860;10.066;2022-12-20T13:45:10;8.20;99.90
28532;DHT22;15738;44.860;10.066;2022-12-20T13:48:01;8.20;99.90
28532;DHT22;15738;44.860;10.066;2022-12-20T13:50:56;8.20;99.90
28532;DHT22;15738;44.860;10.066;2022-12-20T13:53:55;8.20;99.90
28532;DHT22;15738;44.860;10.066;2022-12-20T13:56:45;8.20;99.90
28532;DHT22;15738;44.860;10.066;2022-12-20T13:59:32;8.10;99.90
28532;DHT22;15738;44.860;10.066;2022-12-20T14:02:28;8.20;99.90
28532;DHT22;15738;44.860;10.066;2022-12-20T14:05:20;8.20;99.90
28532;DHT22;15738;44.860;10.066;2022-12-20T14:08:19;8.20;99.90
28532;DHT22;15738;44.860;10.066;2022-12-20T14:11:14;8.20;99.90
28532;DHT22;15738;44.860;10.066;2022-12-20T14:14:03;8.20;99.90
28532;DHT22;15738;44.860;10.066;2022-12-20T14:16:49;8.20;99.90
28532;DHT22;15738;44.860;10.066;2022-12-20T14:19:34;8.20;99.90
28532;DHT22;15738;44.860;10.066;2022-12-20T14:22:20;8.20;99.90
28532;DHT22;15738;44.860;10.066;2022-12-20T14:25:07;8.20;99.90
28532;DHT22;15738;44.860;10.066;2022-12-20T14:27:54;8.20;99.90
28532;DHT22;15738;44.860;10.066;2022-12-20T14:30:42;8.20;99.90
28532;DHT22;15738;44.860;10.066;2022-12-20T14:33:35;8.30;99.90
28532;DHT22;15738;44.860;10.066;2022-12-20T14:36:22;8.30;99.90
28532;DHT22;15738;44.860;10.066;2022-12-20T14:39:27;8.30;99.90
28532;DHT22;15738;44.860;10.066;2022-12-20T14:42:18;8.30;99.90
28532;DHT22;15738;44.860;10.066;2022-12-20T14:45:26;8.30;99.90
28532;DHT22;15738;44.860;10.066;2022-12-20T14:48:15;8.30;99.90
28532;DHT22;15738;44.860;10.066;2022-12-20T14:51:03;8.30;99.90
28532;DHT22;15738;44.860;10.066;2022-12-20T14:53:50;8.30;99.90
28532;DHT22;15738;44.860;10.066;2022-12-20T14:56:36;8.30;99.90
28532;DHT22;15738;44.860;10.066;2022-12-20T14:59:25;8.30;99.90
28532;DHT22;15738;44.860;10.066;2022-12-20T15:02:41;8.20;99.90
28532;DHT22;15738;44.860;10.066;2022-12-20T15:08:32;8.20;99.90
28532;DHT22;15738;44.860;10.066;2022-12-20T15:11:21;8.20;99.90
28532;DHT22;15738;44.860;10.066;2022-12-20T15:14:36;8.20;99.90
28532;DHT22;15738;44.860;10.066;2022-12-20T15:17:22;8.20;99.90
28532;DHT22;15738;44.860;10.066;2022-12-20T15:20:11;8.20;99.90
28532;DHT22;15738;44.860;10.066;2022-12-20T15:22:57;8.10;99.90
28532;DHT22;15738;44.860;10.066;2022-12-20T15:25:44;8.10;99.90
28532;DHT22;15738;44.860;10.066;2022-12-20T15:28:31;8.10;99.90
28532;DHT22;15738;44.860;10.066;2022-12-20T15:31:19;8.10;99.90
28532;DHT22;15738;44.860;10.066;2022-12-20T15:34:26;8.10;99.90
28532;DHT22;15738;44.860;10.066;2022-12-20T15:37:14;8.10;99.90
28532;DHT22;15738;44.860;10.066;2022-12-20T15:40:04;8.00;99.90
28532;DHT22;15738;44.860;10.066;2022-12-20T15:42:51;8.00;99.90
28532;DHT22;15738;44.860;10.066;2022-12-20T15:45:37;8.00;99.90
28532;DHT22;15738;44.860;10.066;2022-12-20T15:48:23;8.00;99.90
28532;DHT22;15738;44.860;10.066;2022-12-20T15:51:25;8.00;99.90
28532;DHT22;15738;44.860;10.066;2022-12-20T15:57:13;8.00;99.90
28532;DHT22;15738;44.860;10.066;2022-12-20T15:59:59;8.00;99.90
28532;DHT22;15738;44.860;10.066;2022-12-20T16:02:55;8.00;99.90
28532;DHT22;15738;44.860;10.066;2022-12-20T16:05:43;8.00;99.90
28532;DHT22;15738;44.860;10.066;2022-12-20T16:08:29;8.00;99.90
28532;DHT22;15738;44.860;10.066;2022-12-20T16:11:27;8.00;99.90
28532;DHT22;15738;44.860;10.066;2022-12-20T16:14:17;8.00;99.90
28532;DHT22;15738;44.860;10.066;2022-12-20T16:17:05;8.00;99.90
28532;DHT22;15738;44.860;10.066;2022-12-20T16:19:52;7.90;99.90
28532;DHT22;15738;44.860;10.066;2022-12-20T16:22:39;7.90;99.90
28532;DHT22;15738;44.860;10.066;2022-12-20T16:25:29;7.90;99.90
28532;DHT22;15738;44.860;10.066;2022-12-20T16:28:16;8.00;99.90
28532;DHT22;15738;44.860;10.066;2022-12-20T16:31:10;8.00;99.90
28532;DHT22;15738;44.860;10.066;2022-12-20T16:33:56;7.90;99.90
28532;DHT22;15738;44.860;10.066;2022-12-20T16:36:43;7.90;99.90
28532;DHT22;15738;44.860;10.066;2022-12-20T16:39:29;7.90;99.90
28532;DHT22;15738;44.860;10.066;2022-12-20T16:42:17;7.90;99.90
28532;DHT22;15738;44.860;10.066;2022-12-20T16:45:15;7.90;99.90
28532;DHT22;15738;44.860;10.066;2022-12-20T16:48:03;7.90;99.90
28532;DHT22;15738;44.860;10.066;2022-12-20T16:50:48;7.90;99.90
28532;DHT22;15738;44.860;10.066;2022-12-20T16:53:34;7.90;99.90
28532;DHT22;15738;44.860;10.066;2022-12-20T16:56:41;7.90;99.90
28532;DHT22;15738;44.860;10.066;2022-12-20T16:59:28;7.90;99.90
28532;DHT22;15738;44.860;10.066;2022-12-20T17:02:24;7.90;99.90
28532;DHT22;15738;44.860;10.066;2022-12-20T17:08:09;7.90;99.90
28532;DHT22;15738;44.860;10.066;2022-12-20T17:11:27;7.80;99.90
28532;DHT22;15738;44.860;10.066;2022-12-20T17:14:13;7.70;99.90
28532;DHT22;15738;44.860;10.066;2022-12-20T17:16:59;7.80;99.90
28532;DHT22;15738;44.860;10.066;2022-12-20T17:19:47;7.80;99.90
28532;DHT22;15738;44.860;10.066;2022-12-20T17:22:32;7.70;99.90
28532;DHT22;15738;44.860;10.066;2022-12-20T17:25:27;7.70;99.90
28532;DHT22;15738;44.860;10.066;2022-12-20T17:28:13;7.80;99.90
28532;DHT22;15738;44.860;10.066;2022-12-20T17:30:59;7.80;99.90
28532;DHT22;15738;44.860;10.066;2022-12-20T17:33:52;7.80;99.90
28532;DHT22;15738;44.860;10.066;2022-12-20T17:36:38;7.80;99.90
28532;DHT22;15738;44.860;10.066;2022-12-20T17:39:24;7.80;99.90
28532;DHT22;15738;44.860;10.066;2022-12-20T17:42:13;7.80;99.90
28532;DHT22;15738;44.860;10.066;2022-12-20T17:44:59;7.80;99.90
28532;DHT22;15738;44.860;10.066;2022-12-20T17:47:45;7.80;99.90
28532;DHT22;15738;44.860;10.066;2022-12-20T17:50:30;7.80;99.90
28532;DHT22;15738;44.860;10.066;2022-12-20T17:53:16;7.90;99.90
28532;DHT22;15738;44.860;10.066;2022-12-20T17:56:02;7.90;99.90
28532;DHT22;15738;44.860;10.066;2022-12-20T17:58:48;7.80;99.90
28532;DHT22;15738;44.860;10.066;2022-12-20T18:01:34;7.90;99.90
28532;DHT22;15738;44.860;10.066;2022-12-20T18:04:20;7.90;99.90
28532;DHT22;15738;44.860;10.066;2022-12-20T18:07:07;7.80;99.90
28532;DHT22;15738;44.860;10.066;2022-12-20T18:09:53;7.80;99.90
28532;DHT22;15738;44.860;10.066;2022-12-20T18:12:38;7.90;99.90
28532;DHT22;15738;44.860;10.066;2022-12-20T18:15:25;7.80;99.90
28532;DHT22;15738;44.860;10.066;2022-12-20T18:18:10;7.80;99.90
28532;DHT22;15738;44.860;10.066;2022-12-20T18:21:07;7.70;99.90
28532;DHT22;15738;44.860;10.066;2022-12-20T18:23:53;7.80;99.90
28532;DHT22;15738;44.860;10.066;2022-12-20T18:26:39;7.80;99.90
28532;DHT22;15738;44.860;10.066;2022-12-20T18:29:25;7.70;99.90
28532;DHT22;15738;44.860;10.066;2022-12-20T18:32:11;7.70;99.90
28532;DHT22;15738;44.860;10.066;2022-12-20T18:34:57;7.70;99.90
28532;DHT22;15738;44.860;10.066;2022-12-20T18:37:43;7.80;99.90
28532;DHT22;15738;44.860;10.066;2022-12-20T18:40:28;7.80;99.90
28532;DHT22;15738;44.860;10.066;2022-12-20T18:43:14;7.70;99.90
28532;DHT22;15738;44.860;10.066;2022-12-20T18:46:10;7.60;99.90
28532;DHT22;15738;44.860;10.066;2022-12-20T18:48:58;7.70;99.90
28532;DHT22;15738;44.860;10.066;2022-12-20T18:51:44;7.70;99.90
28532;DHT22;15738;44.860;10.066;2022-12-20T18:54:29;7.70;99.90
28532;DHT22;15738;44.860;10.066;2022-12-20T18:57:15;7.60;99.90
28532;DHT22;15738;44.860;10.066;2022-12-20T19:00:00;7.70;99.90
28532;DHT22;15738;44.860;10.066;2022-12-20T19:02:47;7.70;99.90
28532;DHT22;15738;44.860;10.066;2022-12-20T19:05:34;7.70;99.90
28532;DHT22;15738;44.860;10.066;2022-12-20T19:08:20;7.70;99.90
28532;DHT22;15738;44.860;10.066;2022-12-20T19:11:08;7.70;99.90
28532;DHT22;15738;44.860;10.066;2022-12-20T19:13:54;7.70;99.90
28532;DHT22;15738;44.860;10.066;2022-12-20T19:16:40;7.60;99.90
28532;DHT22;15738;44.860;10.066;2022-12-20T19:19:26;7.70;99.90
28532;DHT22;15738;44.860;10.066;2022-12-20T19:22:12;7.70;99.90
28532;DHT22;15738;44.860;10.066;2022-12-20T19:24:57;7.60;99.90